Date,TemperatureHighF,TemperatureAvgF,TemperatureLowF,DewpointHighF,DewpointAvgF,DewpointLowF,HumidityHigh,HumidityAvg,HumidityLow,PressureMaxIn,PressureMinIn,WindSpeedMaxMPH,WindSpeedAvgMPH,GustSpeedMaxMPH,PrecipitationSumIn
2013-9-1,94.7,79.4,72.2,78.5,73.7,71.2,98,85,55,29.99,29.87,17,0,18,0.31
2013-9-2,92.3,79.5,72.5,78.0,74.7,71.9,99,87,57,30.00,29.90,3,0,3,0.05
2013-9-3,94.0,81.8,72.3,78.8,74.8,71.2,99,81,50,30.01,29.90,5,0,5,0.01
2013-9-7,85.8,74.8,72.2,76.8,73.7,71.5,98,96,74,29.96,29.91,0,0,1,0.17
2013-9-8,91.5,79.5,71.8,78.5,74.1,71.2,99,85,60,29.96,29.86,3,0,4,0.00
2013-9-9,93.2,80.4,72.0,75.8,73.3,70.7,98,81,52,30.03,29.92,3,0,4,0.00
2013-9-10,92.5,80.4,72.2,76.8,73.5,69.3,98,81,51,30.09,29.99,5,0,5,0.00
2013-9-11,75.2,74.6,73.8,73.8,73.2,72.4,96,95,94,30.07,30.01,0,0,0,0.00
2013-9-15,78.4,76.7,75.0,76.2,73.4,72.1,93,89,88,30.06,30.04,1,0,1,0.00
2013-9-16,93.6,79.4,72.0,79.2,74.3,71.1,98,86,54,30.07,29.97,4,0,4,0.10
2013-9-17,92.0,80.0,73.1,78.7,74.6,72.2,99,85,61,30.05,29.95,8,0,8,0.00
2013-9-18,89.8,78.7,73.5,79.2,74.4,71.0,96,87,66,30.03,29.95,1,0,3,0.02
2013-9-19,92.2,78.8,72.0,77.1,73.4,69.8,98,85,55,30.04,29.96,4,0,4,0.02
2013-9-20,91.1,78.0,68.5,74.1,70.6,67.5,98,80,52,30.02,29.90,3,0,5,0.00
2013-9-21,93.6,79.3,69.1,75.0,71.2,68.5,99,79,49,29.94,29.75,3,0,3,0.00
2013-9-22,91.3,78.4,72.7,77.5,73.6,70.5,98,87,59,29.85,29.73,6,0,10,0.11
2013-9-23,88.0,76.2,73.2,80.5,74.5,72.6,99,95,73,29.95,29.83,0,0,1,0.82
2013-9-24,86.1,76.7,72.7,77.8,74.7,71.5,98,94,73,29.95,29.82,0,0,7,0.56
2013-9-25,82.9,76.9,73.3,74.9,73.3,71.6,98,89,75,29.84,29.76,2,0,7,0.00
2013-9-26,92.5,80.8,73.4,79.8,74.0,66.4,98,82,45,29.85,29.75,3,0,4,0.00
2013-9-27,84.8,74.7,70.0,75.8,71.8,68.9,98,91,71,29.95,29.83,1,0,2,0.03
2013-9-28,83.4,75.9,70.3,76.8,72.1,69.7,98,88,73,30.00,29.90,4,0,4,0.01
2013-9-29,90.5,77.1,68.9,74.2,70.7,67.8,97,82,53,29.98,29.89,1,0,6,0.00
2013-9-30,92.6,77.3,68.2,77.1,71.1,67.6,99,83,49,30.01,29.90,1,0,1,0.00